PLK6000 UHWW-UHPP
Flight info
| Callsign | PLK6000 |
|---|---|
| Flight time | 2h 43m |
| Altitude | 33000 |
| Route | DOLMA2F DOLMA B356 TD T575 AKOLA P175 NALAM T575 DITOR P175 NAMUL P176 UB T577 SAMIK SAMIK5P |
| Aircraft | A321/M-SDE3FGHIRWY/LB1 |
Departure
| Time | 2026-04-26 02:29 |
|---|---|
| Airport | Vladivostok International Airport (UHWW) |
Arrival
| Time | 2026-04-26 05:13 |
|---|---|
| Airport | Yelizovo Airport (UHPP) |
| Time | Latitude | Longitude | Altitude | Speed | Heading |
|---|---|---|---|---|---|
| 2026-04-26 02:05 | 43.39898 | 132.16487 | 70 ft | 0 kts | 152° |
| 2026-04-26 02:24 | 43.39873 | 132.16506 | 69 ft | 7 kts | 147° |
| 2026-04-26 02:24 | 43.39857 | 132.16539 | 69 ft | 3 kts | 104° |
| 2026-04-26 02:24 | 43.39872 | 132.16603 | 61 ft | 11 kts | 60° |
| 2026-04-26 02:24 | 43.39905 | 132.16683 | 69 ft | 7 kts | 61° |
| 2026-04-26 02:25 | 43.39923 | 132.16728 | 67 ft | 5 kts | 61° |
| 2026-04-26 02:25 | 43.39961 | 132.16824 | 64 ft | 17 kts | 61° |
| 2026-04-26 02:25 | 43.40016 | 132.16964 | 69 ft | 15 kts | 62° |
| 2026-04-26 02:25 | 43.40059 | 132.17066 | 61 ft | 10 kts | 53° |
| 2026-04-26 02:26 | 43.40109 | 132.17092 | 69 ft | 6 kts | 347° |
| 2026-04-26 02:26 | 43.40146 | 132.17062 | 63 ft | 8 kts | 328° |
| 2026-04-26 02:26 | 43.40199 | 132.17022 | 64 ft | 7 kts | 333° |
| 2026-04-26 02:26 | 43.40237 | 132.16995 | 69 ft | 7 kts | 333° |
| 2026-04-26 02:27 | 43.40295 | 132.16955 | 63 ft | 12 kts | 333° |
| 2026-04-26 02:27 | 43.40371 | 132.16901 | 67 ft | 11 kts | 333° |
| 2026-04-26 02:27 | 43.40430 | 132.16860 | 67 ft | 8 kts | 333° |
| 2026-04-26 02:27 | 43.40442 | 132.16825 | 65 ft | 2 kts | 249° |
| 2026-04-26 02:28 | 43.40440 | 132.16822 | 67 ft | 0 kts | 240° |
| 2026-04-26 02:28 | 43.40440 | 132.16821 | 67 ft | 0 kts | 240° |
| 2026-04-26 02:28 | 43.40314 | 132.16503 | 64 ft | 74 kts | 241° |
| 2026-04-26 02:28 | 43.39964 | 132.15634 | 62 ft | 131 kts | 241° |
| 2026-04-26 02:29 | 43.39443 | 132.14345 | 85 ft | 174 kts | 241° |
| 2026-04-26 02:29 | 43.38860 | 132.12789 | 527 ft | 183 kts | 243° |
| 2026-04-26 02:29 | 43.38279 | 132.11264 | 1278 ft | 179 kts | 241° |
| 2026-04-26 02:29 | 43.37679 | 132.09780 | 1909 ft | 175 kts | 240° |
| 2026-04-26 02:30 | 43.37055 | 132.08305 | 2191 ft | 188 kts | 240° |
| 2026-04-26 02:30 | 43.36381 | 132.06678 | 2316 ft | 203 kts | 240° |
| 2026-04-26 02:30 | 43.35653 | 132.04913 | 2435 ft | 222 kts | 240° |
| 2026-04-26 02:30 | 43.34870 | 132.03007 | 2823 ft | 232 kts | 242° |
| 2026-04-26 02:31 | 43.34406 | 132.00832 | 3132 ft | 250 kts | 274° |
| 2026-04-26 02:31 | 43.35020 | 131.98590 | 3601 ft | 259 kts | 311° |
| 2026-04-26 02:31 | 43.36525 | 131.97252 | 4221 ft | 265 kts | 346° |
| 2026-04-26 02:31 | 43.38367 | 131.97343 | 4827 ft | 273 kts | 19° |
| 2026-04-26 02:32 | 43.39933 | 131.98846 | 5376 ft | 282 kts | 48° |
| 2026-04-26 02:32 | 43.41110 | 132.01051 | 5928 ft | 290 kts | 57° |
| 2026-04-26 02:32 | 43.42199 | 132.03423 | 6429 ft | 296 kts | 57° |
| 2026-04-26 02:32 | 43.43299 | 132.05838 | 6930 ft | 300 kts | 56° |
| 2026-04-26 02:33 | 43.44424 | 132.08279 | 7494 ft | 304 kts | 54° |
| 2026-04-26 02:33 | 43.45726 | 132.10604 | 8065 ft | 309 kts | 47° |
| 2026-04-26 02:33 | 43.47170 | 132.12805 | 8665 ft | 311 kts | 44° |
| 2026-04-26 02:33 | 43.48675 | 132.14962 | 9228 ft | 315 kts | 43° |
| 2026-04-26 02:34 | 43.50200 | 132.17140 | 9773 ft | 318 kts | 44° |
| 2026-04-26 02:34 | 43.51740 | 132.19362 | 10197 ft | 327 kts | 44° |
| 2026-04-26 02:34 | 43.53337 | 132.21676 | 10322 ft | 341 kts | 45° |
| 2026-04-26 02:34 | 43.55008 | 132.24139 | 10449 ft | 362 kts | 45° |
| 2026-04-26 02:35 | 43.56758 | 132.26751 | 10629 ft | 378 kts | 45° |
| 2026-04-26 02:35 | 43.57947 | 132.28533 | 10787 ft | 382 kts | 46° |
| 2026-04-26 02:35 | 43.60363 | 132.32227 | 11384 ft | 391 kts | 46° |
| 2026-04-26 02:35 | 43.61567 | 132.34078 | 11759 ft | 393 kts | 46° |
| 2026-04-26 02:36 | 43.63405 | 132.36889 | 12310 ft | 396 kts | 46° |
| 2026-04-26 02:36 | 43.65264 | 132.39725 | 12782 ft | 400 kts | 45° |
| 2026-04-26 02:36 | 43.67142 | 132.42578 | 13322 ft | 403 kts | 45° |
| 2026-04-26 02:36 | 43.69034 | 132.45445 | 13849 ft | 405 kts | 45° |
| 2026-04-26 02:37 | 43.70938 | 132.48338 | 14362 ft | 409 kts | 45° |
| 2026-04-26 02:37 | 43.72859 | 132.51261 | 14858 ft | 413 kts | 45° |
| 2026-04-26 02:37 | 43.74798 | 132.54213 | 15385 ft | 416 kts | 45° |
| 2026-04-26 02:37 | 43.76749 | 132.57190 | 15893 ft | 419 kts | 45° |
| 2026-04-26 02:38 | 43.78709 | 132.60188 | 16351 ft | 422 kts | 45° |
| 2026-04-26 02:38 | 43.80698 | 132.63186 | 16788 ft | 424 kts | 42° |
| 2026-04-26 02:38 | 43.82878 | 132.65937 | 17225 ft | 426 kts | 38° |
| 2026-04-26 02:38 | 43.85097 | 132.68666 | 17691 ft | 427 kts | 39° |
| 2026-04-26 02:39 | 43.87330 | 132.71407 | 18070 ft | 431 kts | 38° |
| 2026-04-26 02:39 | 43.89586 | 132.74164 | 18497 ft | 435 kts | 38° |
| 2026-04-26 02:39 | 43.91869 | 132.76946 | 18958 ft | 438 kts | 38° |
| 2026-04-26 02:39 | 43.94154 | 132.79753 | 19360 ft | 442 kts | 39° |
| 2026-04-26 02:40 | 43.96438 | 132.82602 | 19721 ft | 443 kts | 40° |
| 2026-04-26 02:40 | 43.98715 | 132.85454 | 20002 ft | 443 kts | 38° |
| 2026-04-26 02:40 | 44.01023 | 132.88328 | 20314 ft | 448 kts | 39° |
| 2026-04-26 02:40 | 44.03357 | 132.91219 | 20679 ft | 452 kts | 39° |
| 2026-04-26 02:41 | 44.05710 | 132.94138 | 21037 ft | 454 kts | 39° |
| 2026-04-26 02:41 | 44.08070 | 132.97070 | 21410 ft | 456 kts | 39° |
| 2026-04-26 02:41 | 44.10407 | 132.99977 | 21751 ft | 458 kts | 39° |
| 2026-04-26 02:41 | 44.12790 | 133.02946 | 22092 ft | 461 kts | 39° |
| 2026-04-26 02:42 | 44.15183 | 133.05931 | 22414 ft | 463 kts | 39° |
| 2026-04-26 02:42 | 44.17584 | 133.08936 | 22739 ft | 466 kts | 39° |
| 2026-04-26 02:42 | 44.20010 | 133.11945 | 23065 ft | 467 kts | 37° |
| 2026-04-26 02:42 | 44.22600 | 133.14686 | 23383 ft | 468 kts | 33° |
| 2026-04-26 02:43 | 44.27863 | 133.20092 | 23999 ft | 472 kts | 33° |
| 2026-04-26 02:43 | 44.30510 | 133.22807 | 24288 ft | 474 kts | 33° |
| 2026-04-26 02:43 | 44.33173 | 133.25541 | 24577 ft | 476 kts | 33° |
| 2026-04-26 02:44 | 44.35841 | 133.28292 | 24868 ft | 478 kts | 33° |
| 2026-04-26 02:44 | 44.38521 | 133.31065 | 25159 ft | 480 kts | 33° |
| 2026-04-26 02:44 | 44.41206 | 133.33848 | 25450 ft | 482 kts | 33° |
| 2026-04-26 02:44 | 44.43904 | 133.36650 | 25717 ft | 483 kts | 33° |
| 2026-04-26 02:45 | 44.46608 | 133.39454 | 25972 ft | 485 kts | 33° |
| 2026-04-26 02:45 | 44.49322 | 133.42278 | 26234 ft | 487 kts | 33° |
| 2026-04-26 02:45 | 44.52048 | 133.45117 | 26496 ft | 489 kts | 33° |
| 2026-04-26 02:45 | 44.54778 | 133.47964 | 26739 ft | 491 kts | 33° |
| 2026-04-26 02:46 | 44.57525 | 133.50829 | 26974 ft | 493 kts | 33° |
| 2026-04-26 02:46 | 44.60284 | 133.53710 | 27196 ft | 496 kts | 33° |
| 2026-04-26 02:46 | 44.63050 | 133.56602 | 27435 ft | 497 kts | 33° |
| 2026-04-26 02:46 | 44.65831 | 133.59512 | 27683 ft | 499 kts | 33° |
| 2026-04-26 02:47 | 44.68620 | 133.62437 | 27917 ft | 501 kts | 33° |
| 2026-04-26 02:47 | 44.71415 | 133.65373 | 28128 ft | 503 kts | 33° |
| 2026-04-26 02:47 | 44.74226 | 133.68322 | 28341 ft | 504 kts | 33° |
| 2026-04-26 02:47 | 44.77042 | 133.71281 | 28572 ft | 507 kts | 33° |
| 2026-04-26 02:48 | 44.79874 | 133.74258 | 28806 ft | 509 kts | 33° |
| 2026-04-26 02:48 | 44.82710 | 133.77248 | 29014 ft | 511 kts | 33° |
| 2026-04-26 02:48 | 44.85558 | 133.80259 | 29200 ft | 513 kts | 33° |
| 2026-04-26 02:48 | 44.88407 | 133.83276 | 29482 ft | 512 kts | 33° |
| 2026-04-26 02:49 | 44.91257 | 133.86301 | 29760 ft | 513 kts | 33° |
| 2026-04-26 02:49 | 44.94113 | 133.89298 | 30036 ft | 512 kts | 32° |
| 2026-04-26 02:49 | 44.96966 | 133.92187 | 30282 ft | 511 kts | 31° |
| 2026-04-26 02:49 | 44.99879 | 133.95057 | 30534 ft | 511 kts | 30° |
| 2026-04-26 02:50 | 45.02809 | 133.97910 | 30777 ft | 511 kts | 30° |
| 2026-04-26 02:50 | 45.05741 | 134.00771 | 31033 ft | 512 kts | 30° |
| 2026-04-26 02:50 | 45.08658 | 134.03647 | 31305 ft | 511 kts | 31° |
| 2026-04-26 02:50 | 45.11567 | 134.06545 | 31574 ft | 511 kts | 31° |
| 2026-04-26 02:51 | 45.14468 | 134.09461 | 31810 ft | 511 kts | 31° |
| 2026-04-26 02:51 | 45.17364 | 134.12386 | 32036 ft | 512 kts | 31° |
| 2026-04-26 02:51 | 45.20266 | 134.15320 | 32259 ft | 512 kts | 31° |
| 2026-04-26 02:51 | 45.23168 | 134.18248 | 32489 ft | 513 kts | 31° |
| 2026-04-26 02:52 | 45.26080 | 134.21179 | 32712 ft | 513 kts | 31° |
| 2026-04-26 02:52 | 45.28991 | 134.24106 | 32907 ft | 514 kts | 31° |
| 2026-04-26 02:52 | 45.34794 | 134.29955 | 32952 ft | 510 kts | 31° |
| 2026-04-26 02:53 | 45.40573 | 134.35810 | 32953 ft | 510 kts | 31° |
| 2026-04-26 02:53 | 45.46352 | 134.41682 | 32964 ft | 511 kts | 31° |
| 2026-04-26 02:54 | 45.52135 | 134.47561 | 32956 ft | 511 kts | 31° |
| 2026-04-26 02:54 | 45.57910 | 134.53465 | 32964 ft | 511 kts | 31° |
| 2026-04-26 02:55 | 45.63685 | 134.59381 | 32959 ft | 511 kts | 31° |
| 2026-04-26 02:55 | 45.69463 | 134.65313 | 32964 ft | 511 kts | 31° |
| 2026-04-26 02:56 | 45.75233 | 134.71256 | 32958 ft | 511 kts | 31° |
| 2026-04-26 02:56 | 45.80998 | 134.77216 | 32960 ft | 511 kts | 31° |
| 2026-04-26 02:57 | 45.86762 | 134.83176 | 32964 ft | 511 kts | 31° |
| 2026-04-26 02:57 | 45.91969 | 134.90172 | 32961 ft | 518 kts | 50° |
| 2026-04-26 02:58 | 45.96330 | 134.98416 | 32964 ft | 518 kts | 50° |
| 2026-04-26 02:58 | 46.00697 | 135.06652 | 32969 ft | 518 kts | 50° |
| 2026-04-26 02:59 | 46.05056 | 135.14909 | 32947 ft | 518 kts | 50° |
| 2026-04-26 02:59 | 46.09386 | 135.23131 | 32948 ft | 519 kts | 50° |
| 2026-04-26 03:00 | 46.13727 | 135.31441 | 32951 ft | 519 kts | 50° |
| 2026-04-26 03:00 | 46.18062 | 135.39758 | 32957 ft | 519 kts | 50° |
| 2026-04-26 03:01 | 46.22399 | 135.48071 | 32961 ft | 518 kts | 50° |
| 2026-04-26 03:01 | 46.26723 | 135.56402 | 32963 ft | 518 kts | 50° |
| 2026-04-26 03:02 | 46.31031 | 135.64745 | 32956 ft | 518 kts | 50° |
| 2026-04-26 03:02 | 46.35342 | 135.73088 | 32964 ft | 518 kts | 50° |
| 2026-04-26 03:03 | 46.39721 | 135.81356 | 32966 ft | 516 kts | 49° |
| 2026-04-26 03:03 | 46.44201 | 135.89480 | 32956 ft | 515 kts | 48° |
| 2026-04-26 03:04 | 46.48684 | 135.97597 | 32953 ft | 516 kts | 48° |
| 2026-04-26 03:04 | 46.53125 | 136.05788 | 32954 ft | 517 kts | 49° |
| 2026-04-26 03:05 | 46.57539 | 136.14028 | 32962 ft | 516 kts | 49° |
| 2026-04-26 03:05 | 46.61916 | 136.22188 | 32964 ft | 515 kts | 49° |
| 2026-04-26 03:06 | 46.66323 | 136.30397 | 32959 ft | 515 kts | 49° |
| 2026-04-26 03:06 | 46.70728 | 136.38625 | 32966 ft | 515 kts | 49° |
| 2026-04-26 03:07 | 46.75111 | 136.46868 | 32962 ft | 515 kts | 49° |
| 2026-04-26 03:07 | 46.79500 | 136.55115 | 32970 ft | 515 kts | 48° |
| 2026-04-26 03:08 | 46.83874 | 136.63359 | 32969 ft | 514 kts | 48° |
| 2026-04-26 03:08 | 46.88248 | 136.71610 | 32962 ft | 514 kts | 49° |
| 2026-04-26 03:09 | 46.92616 | 136.79888 | 32960 ft | 514 kts | 49° |
| 2026-04-26 03:09 | 46.96968 | 136.88180 | 32966 ft | 514 kts | 49° |
| 2026-04-26 03:10 | 47.01318 | 136.96487 | 32965 ft | 514 kts | 48° |
| 2026-04-26 03:10 | 47.05674 | 137.04797 | 32977 ft | 514 kts | 49° |
| 2026-04-26 03:11 | 47.10022 | 137.13122 | 32968 ft | 514 kts | 50° |
| 2026-04-26 03:11 | 47.14364 | 137.21458 | 32958 ft | 514 kts | 50° |
| 2026-04-26 03:12 | 47.18695 | 137.29800 | 32959 ft | 513 kts | 50° |
| 2026-04-26 03:12 | 47.23022 | 137.38148 | 32962 ft | 513 kts | 50° |
| 2026-04-26 03:13 | 47.27295 | 137.46450 | 32955 ft | 512 kts | 50° |
| 2026-04-26 03:13 | 47.31586 | 137.54805 | 32954 ft | 512 kts | 50° |
| 2026-04-26 03:14 | 47.35865 | 137.63172 | 32957 ft | 510 kts | 50° |
| 2026-04-26 03:14 | 47.40130 | 137.71536 | 32962 ft | 510 kts | 50° |
| 2026-04-26 03:15 | 47.44390 | 137.79908 | 32959 ft | 509 kts | 50° |
| 2026-04-26 03:15 | 47.48626 | 137.88285 | 32963 ft | 509 kts | 50° |
| 2026-04-26 03:16 | 47.52851 | 137.96668 | 32959 ft | 507 kts | 50° |
| 2026-04-26 03:16 | 47.57068 | 138.05042 | 32960 ft | 507 kts | 50° |
| 2026-04-26 03:17 | 47.61265 | 138.13404 | 32955 ft | 505 kts | 50° |
| 2026-04-26 03:17 | 47.65447 | 138.21774 | 32951 ft | 505 kts | 50° |
| 2026-04-26 03:18 | 47.69629 | 138.30161 | 32950 ft | 506 kts | 50° |
| 2026-04-26 03:18 | 47.73805 | 138.38553 | 32941 ft | 505 kts | 50° |
| 2026-04-26 03:19 | 47.77965 | 138.46965 | 32940 ft | 505 kts | 50° |
| 2026-04-26 03:19 | 47.82127 | 138.55387 | 32942 ft | 505 kts | 50° |
| 2026-04-26 03:20 | 47.86286 | 138.63829 | 32943 ft | 506 kts | 50° |
| 2026-04-26 03:20 | 47.90439 | 138.72288 | 32943 ft | 506 kts | 50° |
| 2026-04-26 03:21 | 47.94591 | 138.80766 | 32944 ft | 506 kts | 50° |
| 2026-04-26 03:21 | 47.98746 | 138.89260 | 32943 ft | 507 kts | 51° |
| 2026-04-26 03:22 | 48.02890 | 138.97790 | 32940 ft | 508 kts | 51° |
| 2026-04-26 03:22 | 48.07035 | 139.06348 | 32933 ft | 509 kts | 50° |
| 2026-04-26 03:23 | 48.11174 | 139.14940 | 32966 ft | 511 kts | 51° |
| 2026-04-26 03:23 | 48.15328 | 139.23596 | 32985 ft | 512 kts | 51° |
| 2026-04-26 03:24 | 48.19474 | 139.32282 | 32981 ft | 513 kts | 51° |
| 2026-04-26 03:24 | 48.23593 | 139.40928 | 32984 ft | 513 kts | 51° |
| 2026-04-26 03:25 | 48.27063 | 139.48239 | 32979 ft | 513 kts | 51° |
| 2026-04-26 03:25 | 48.31877 | 139.58393 | 32985 ft | 514 kts | 51° |
| 2026-04-26 03:26 | 48.36012 | 139.67153 | 32977 ft | 514 kts | 51° |
| 2026-04-26 03:26 | 48.39468 | 139.74524 | 32979 ft | 515 kts | 51° |
| 2026-04-26 03:27 | 48.43596 | 139.83335 | 32982 ft | 515 kts | 51° |
| 2026-04-26 03:27 | 48.47727 | 139.92155 | 32995 ft | 515 kts | 51° |
| 2026-04-26 03:28 | 48.51863 | 140.00968 | 32986 ft | 515 kts | 51° |
| 2026-04-26 03:28 | 48.55954 | 140.09738 | 32977 ft | 514 kts | 51° |
| 2026-04-26 03:29 | 48.60001 | 140.18674 | 32997 ft | 518 kts | 57° |
| 2026-04-26 03:29 | 48.63198 | 140.28458 | 33002 ft | 520 kts | 62° |
| 2026-04-26 03:30 | 48.66311 | 140.38328 | 32999 ft | 519 kts | 62° |
| 2026-04-26 03:30 | 48.69414 | 140.48196 | 32987 ft | 519 kts | 62° |
| 2026-04-26 03:31 | 48.72509 | 140.58075 | 32986 ft | 519 kts | 62° |
| 2026-04-26 03:31 | 48.75605 | 140.67965 | 32999 ft | 520 kts | 62° |
| 2026-04-26 03:32 | 48.78705 | 140.77881 | 33000 ft | 520 kts | 62° |
| 2026-04-26 03:32 | 48.81788 | 140.87809 | 33006 ft | 520 kts | 62° |
| 2026-04-26 03:33 | 48.84856 | 140.97746 | 33008 ft | 520 kts | 62° |
| 2026-04-26 03:33 | 48.87912 | 141.07689 | 33006 ft | 519 kts | 62° |
| 2026-04-26 03:34 | 48.90968 | 141.17624 | 33001 ft | 519 kts | 62° |
| 2026-04-26 03:34 | 48.94018 | 141.27569 | 33001 ft | 519 kts | 62° |
| 2026-04-26 03:35 | 48.97057 | 141.37537 | 33002 ft | 520 kts | 62° |
| 2026-04-26 03:35 | 49.00077 | 141.47526 | 33005 ft | 519 kts | 62° |
| 2026-04-26 03:36 | 49.03099 | 141.57521 | 33012 ft | 519 kts | 62° |
| 2026-04-26 03:36 | 49.06120 | 141.67509 | 33018 ft | 519 kts | 62° |
| 2026-04-26 03:37 | 49.09129 | 141.77501 | 33020 ft | 518 kts | 62° |
| 2026-04-26 03:37 | 49.12125 | 141.87508 | 33015 ft | 518 kts | 62° |
| 2026-04-26 03:38 | 49.15115 | 141.97515 | 33008 ft | 518 kts | 62° |
| 2026-04-26 03:38 | 49.18091 | 142.07529 | 33014 ft | 517 kts | 62° |
| 2026-04-26 03:39 | 49.21034 | 142.17476 | 33011 ft | 517 kts | 62° |
| 2026-04-26 03:39 | 49.23989 | 142.27493 | 33008 ft | 517 kts | 62° |
| 2026-04-26 03:40 | 49.26939 | 142.37523 | 33010 ft | 517 kts | 62° |
| 2026-04-26 03:40 | 49.29880 | 142.47569 | 33017 ft | 516 kts | 62° |
| 2026-04-26 03:41 | 49.32810 | 142.57620 | 33021 ft | 517 kts | 62° |
| 2026-04-26 03:41 | 49.35727 | 142.67676 | 33019 ft | 516 kts | 62° |
| 2026-04-26 03:42 | 49.38635 | 142.77732 | 33015 ft | 515 kts | 62° |
| 2026-04-26 03:42 | 49.41535 | 142.87792 | 33010 ft | 515 kts | 62° |
| 2026-04-26 03:43 | 49.44405 | 142.97788 | 33009 ft | 515 kts | 62° |
| 2026-04-26 03:43 | 49.47279 | 143.07871 | 33016 ft | 515 kts | 62° |
| 2026-04-26 03:44 | 49.50151 | 143.17951 | 33020 ft | 514 kts | 62° |
| 2026-04-26 03:44 | 49.53004 | 143.28033 | 33020 ft | 513 kts | 62° |
| 2026-04-26 03:45 | 49.55848 | 143.38110 | 33020 ft | 513 kts | 62° |
| 2026-04-26 03:45 | 49.58684 | 143.48197 | 33022 ft | 512 kts | 63° |
| 2026-04-26 03:46 | 49.61498 | 143.58273 | 33019 ft | 512 kts | 63° |
| 2026-04-26 03:47 | 49.65703 | 143.73403 | 33022 ft | 511 kts | 63° |
| 2026-04-26 03:47 | 49.68489 | 143.83482 | 33018 ft | 510 kts | 63° |
| 2026-04-26 03:48 | 49.71266 | 143.93551 | 33012 ft | 509 kts | 63° |
| 2026-04-26 03:48 | 49.74027 | 144.03623 | 33007 ft | 509 kts | 63° |
| 2026-04-26 03:49 | 49.76775 | 144.13703 | 33008 ft | 509 kts | 63° |
| 2026-04-26 03:49 | 49.79514 | 144.23786 | 33006 ft | 508 kts | 63° |
| 2026-04-26 03:50 | 49.82243 | 144.33880 | 33007 ft | 508 kts | 63° |
| 2026-04-26 03:50 | 49.84952 | 144.43906 | 33010 ft | 508 kts | 63° |
| 2026-04-26 03:51 | 49.87668 | 144.54020 | 33014 ft | 508 kts | 63° |
| 2026-04-26 03:51 | 49.90366 | 144.64148 | 33012 ft | 508 kts | 63° |
| 2026-04-26 03:52 | 49.93059 | 144.74282 | 33013 ft | 508 kts | 63° |
| 2026-04-26 03:52 | 49.95752 | 144.84419 | 33017 ft | 508 kts | 63° |
| 2026-04-26 03:53 | 49.98425 | 144.94574 | 33018 ft | 508 kts | 63° |
| 2026-04-26 03:53 | 50.01093 | 145.04730 | 33026 ft | 507 kts | 63° |
| 2026-04-26 03:54 | 50.03747 | 145.14865 | 33058 ft | 504 kts | 63° |
| 2026-04-26 03:54 | 50.06372 | 145.24955 | 33057 ft | 502 kts | 63° |
| 2026-04-26 03:55 | 50.08970 | 145.35009 | 33051 ft | 500 kts | 63° |
| 2026-04-26 03:55 | 50.11552 | 145.45044 | 33045 ft | 499 kts | 63° |
| 2026-04-26 03:56 | 50.14126 | 145.55071 | 33037 ft | 498 kts | 63° |
| 2026-04-26 03:56 | 50.16687 | 145.65094 | 33023 ft | 497 kts | 63° |
| 2026-04-26 03:57 | 50.19246 | 145.75130 | 33016 ft | 499 kts | 63° |
| 2026-04-26 03:57 | 50.21796 | 145.85210 | 33012 ft | 500 kts | 63° |
| 2026-04-26 03:58 | 50.24340 | 145.95310 | 33013 ft | 500 kts | 63° |
| 2026-04-26 03:58 | 50.26874 | 146.05433 | 33016 ft | 500 kts | 63° |
| 2026-04-26 03:59 | 50.29408 | 146.15546 | 33021 ft | 499 kts | 63° |
| 2026-04-26 03:59 | 50.31931 | 146.25665 | 33026 ft | 499 kts | 63° |
| 2026-04-26 04:00 | 50.34438 | 146.35793 | 33028 ft | 498 kts | 64° |
| 2026-04-26 04:00 | 50.36906 | 146.45844 | 33023 ft | 497 kts | 64° |
| 2026-04-26 04:01 | 50.39381 | 146.55953 | 33025 ft | 496 kts | 64° |
| 2026-04-26 04:01 | 50.41847 | 146.66046 | 33028 ft | 495 kts | 64° |
| 2026-04-26 04:02 | 50.44299 | 146.76127 | 33033 ft | 494 kts | 64° |
| 2026-04-26 04:02 | 50.46742 | 146.86198 | 33031 ft | 494 kts | 64° |
| 2026-04-26 04:03 | 50.49161 | 146.96273 | 33026 ft | 493 kts | 64° |
| 2026-04-26 04:03 | 50.51576 | 147.06338 | 33024 ft | 492 kts | 64° |
| 2026-04-26 04:04 | 50.53981 | 147.16414 | 33025 ft | 492 kts | 65° |
| 2026-04-26 04:04 | 50.56368 | 147.26489 | 33023 ft | 492 kts | 65° |
| 2026-04-26 04:05 | 50.58750 | 147.36562 | 33028 ft | 491 kts | 65° |
| 2026-04-26 04:05 | 50.61122 | 147.46639 | 33025 ft | 491 kts | 65° |
| 2026-04-26 04:06 | 50.63490 | 147.56719 | 33019 ft | 491 kts | 65° |
| 2026-04-26 04:06 | 50.65846 | 147.66810 | 33020 ft | 491 kts | 65° |
| 2026-04-26 04:07 | 50.68195 | 147.76921 | 33018 ft | 491 kts | 65° |
| 2026-04-26 04:07 | 50.70532 | 147.87040 | 33018 ft | 491 kts | 65° |
| 2026-04-26 04:08 | 50.72837 | 147.97089 | 33013 ft | 490 kts | 65° |
| 2026-04-26 04:08 | 50.75148 | 148.07206 | 33009 ft | 490 kts | 65° |
| 2026-04-26 04:09 | 50.77452 | 148.17327 | 33012 ft | 490 kts | 65° |
| 2026-04-26 04:09 | 50.79748 | 148.27462 | 33013 ft | 490 kts | 66° |
| 2026-04-26 04:10 | 50.82032 | 148.37607 | 33014 ft | 490 kts | 66° |
| 2026-04-26 04:10 | 50.84307 | 148.47753 | 33016 ft | 489 kts | 66° |
| 2026-04-26 04:11 | 50.86578 | 148.57890 | 33017 ft | 488 kts | 66° |
| 2026-04-26 04:11 | 50.88825 | 148.68032 | 33014 ft | 488 kts | 66° |
| 2026-04-26 04:12 | 50.91064 | 148.78177 | 33010 ft | 487 kts | 66° |
| 2026-04-26 04:12 | 50.93303 | 148.88311 | 33014 ft | 487 kts | 66° |
| 2026-04-26 04:13 | 50.95526 | 148.98451 | 33014 ft | 487 kts | 66° |
| 2026-04-26 04:13 | 50.97735 | 149.08608 | 33014 ft | 487 kts | 66° |
| 2026-04-26 04:14 | 50.99936 | 149.18779 | 33013 ft | 487 kts | 66° |
| 2026-04-26 04:14 | 51.02137 | 149.28946 | 33015 ft | 487 kts | 66° |
| 2026-04-26 04:15 | 51.03958 | 149.37411 | 33017 ft | 487 kts | 66° |
| 2026-04-26 04:15 | 51.06135 | 149.47607 | 33021 ft | 487 kts | 66° |
| 2026-04-26 04:16 | 51.08306 | 149.57803 | 33020 ft | 487 kts | 66° |
| 2026-04-26 04:16 | 51.10468 | 149.68004 | 33017 ft | 487 kts | 67° |
| 2026-04-26 04:17 | 51.12617 | 149.78206 | 33023 ft | 486 kts | 67° |
| 2026-04-26 04:17 | 51.14749 | 149.88424 | 33024 ft | 486 kts | 67° |
| 2026-04-26 04:18 | 51.16905 | 149.98638 | 32977 ft | 484 kts | 63° |
| 2026-04-26 04:18 | 51.19959 | 150.08026 | 32938 ft | 475 kts | 54° |
| 2026-04-26 04:19 | 51.23215 | 150.17213 | 32927 ft | 476 kts | 54° |
| 2026-04-26 04:19 | 51.26460 | 150.26431 | 32923 ft | 476 kts | 55° |
| 2026-04-26 04:20 | 51.29693 | 150.35672 | 32921 ft | 476 kts | 55° |
| 2026-04-26 04:20 | 51.32889 | 150.44850 | 32916 ft | 476 kts | 55° |
| 2026-04-26 04:21 | 51.36104 | 150.54091 | 32921 ft | 475 kts | 55° |
| 2026-04-26 04:21 | 51.39331 | 150.63408 | 32917 ft | 475 kts | 55° |
| 2026-04-26 04:22 | 51.42529 | 150.72674 | 32910 ft | 475 kts | 55° |
| 2026-04-26 04:22 | 51.45688 | 150.81895 | 32913 ft | 475 kts | 56° |
| 2026-04-26 04:23 | 51.48885 | 150.91256 | 32913 ft | 476 kts | 56° |
| 2026-04-26 04:23 | 51.52053 | 151.00503 | 32919 ft | 476 kts | 55° |
| 2026-04-26 04:24 | 51.55249 | 151.09893 | 32924 ft | 476 kts | 56° |
| 2026-04-26 04:24 | 51.58408 | 151.19246 | 32926 ft | 476 kts | 56° |
| 2026-04-26 04:25 | 51.61558 | 151.28598 | 32928 ft | 475 kts | 56° |
| 2026-04-26 04:25 | 51.64687 | 151.37883 | 32927 ft | 475 kts | 56° |
| 2026-04-26 04:26 | 51.67824 | 151.47237 | 32924 ft | 474 kts | 56° |
| 2026-04-26 04:26 | 51.70946 | 151.56602 | 32922 ft | 474 kts | 56° |
| 2026-04-26 04:27 | 51.74052 | 151.65969 | 32922 ft | 473 kts | 56° |
| 2026-04-26 04:27 | 51.77144 | 151.75338 | 32914 ft | 473 kts | 56° |
| 2026-04-26 04:28 | 51.80254 | 151.84766 | 32912 ft | 472 kts | 56° |
| 2026-04-26 04:28 | 51.83335 | 151.94134 | 32908 ft | 472 kts | 56° |
| 2026-04-26 04:29 | 51.86383 | 152.03444 | 32901 ft | 471 kts | 57° |
| 2026-04-26 04:29 | 51.89446 | 152.12822 | 32895 ft | 471 kts | 57° |
| 2026-04-26 04:30 | 51.92499 | 152.22218 | 32898 ft | 471 kts | 57° |
| 2026-04-26 04:30 | 51.95543 | 152.31625 | 32893 ft | 471 kts | 57° |
| 2026-04-26 04:31 | 51.98577 | 152.41060 | 32881 ft | 472 kts | 57° |
| 2026-04-26 04:31 | 52.01613 | 152.50511 | 32886 ft | 472 kts | 57° |
| 2026-04-26 04:32 | 52.04658 | 152.60028 | 32899 ft | 471 kts | 57° |
| 2026-04-26 04:32 | 52.07643 | 152.69412 | 32901 ft | 471 kts | 57° |
| 2026-04-26 04:33 | 52.10664 | 152.78923 | 32908 ft | 470 kts | 58° |
| 2026-04-26 04:33 | 52.13658 | 152.88373 | 32912 ft | 469 kts | 58° |
| 2026-04-26 04:34 | 52.16612 | 152.97754 | 32893 ft | 468 kts | 58° |
| 2026-04-26 04:34 | 52.19568 | 153.07198 | 32891 ft | 468 kts | 58° |
| 2026-04-26 04:35 | 52.22522 | 153.16639 | 32886 ft | 467 kts | 58° |
| 2026-04-26 04:35 | 52.25470 | 153.26087 | 32887 ft | 468 kts | 58° |
| 2026-04-26 04:36 | 52.28401 | 153.35546 | 32882 ft | 467 kts | 58° |
| 2026-04-26 04:36 | 52.31320 | 153.45016 | 32883 ft | 466 kts | 58° |
| 2026-04-26 04:37 | 52.34236 | 153.54485 | 32876 ft | 466 kts | 58° |
| 2026-04-26 04:37 | 52.37143 | 153.63962 | 32871 ft | 466 kts | 58° |
| 2026-04-26 04:38 | 52.40052 | 153.73454 | 32868 ft | 467 kts | 58° |
| 2026-04-26 04:38 | 52.42948 | 153.82969 | 32868 ft | 467 kts | 59° |
| 2026-04-26 04:39 | 52.45824 | 153.92516 | 32870 ft | 467 kts | 59° |
| 2026-04-26 04:39 | 52.48685 | 154.02009 | 32870 ft | 467 kts | 59° |
| 2026-04-26 04:40 | 52.51570 | 154.11573 | 32872 ft | 467 kts | 59° |
| 2026-04-26 04:40 | 52.54433 | 154.21144 | 32871 ft | 467 kts | 59° |
| 2026-04-26 04:41 | 52.57285 | 154.30726 | 32873 ft | 467 kts | 59° |
| 2026-04-26 04:41 | 52.60082 | 154.40123 | 32874 ft | 466 kts | 59° |
| 2026-04-26 04:42 | 52.62388 | 154.47873 | 32867 ft | 464 kts | 59° |
| 2026-04-26 04:42 | 52.64355 | 154.57617 | 32868 ft | 473 kts | 76° |
| 2026-04-26 04:43 | 52.65373 | 154.67044 | 32869 ft | 473 kts | 76° |
| 2026-04-26 04:43 | 52.66455 | 154.76890 | 32866 ft | 473 kts | 76° |
| 2026-04-26 04:44 | 52.67614 | 154.87546 | 32865 ft | 472 kts | 76° |
| 2026-04-26 04:44 | 52.68757 | 154.98206 | 32863 ft | 472 kts | 76° |
| 2026-04-26 04:45 | 52.69878 | 155.08792 | 32863 ft | 472 kts | 76° |
| 2026-04-26 04:45 | 52.71001 | 155.19514 | 32862 ft | 471 kts | 77° |
| 2026-04-26 04:46 | 52.72061 | 155.29780 | 32857 ft | 471 kts | 77° |
| 2026-04-26 04:46 | 52.73155 | 155.40384 | 32853 ft | 471 kts | 77° |
| 2026-04-26 04:47 | 52.74240 | 155.50966 | 32849 ft | 471 kts | 77° |
| 2026-04-26 04:47 | 52.75321 | 155.61694 | 32846 ft | 471 kts | 77° |
| 2026-04-26 04:48 | 52.76904 | 155.77609 | 32840 ft | 470 kts | 77° |
| 2026-04-26 04:48 | 52.77956 | 155.88270 | 32838 ft | 470 kts | 77° |
| 2026-04-26 04:49 | 52.78997 | 155.98940 | 32834 ft | 471 kts | 77° |
| 2026-04-26 04:49 | 52.80026 | 156.09618 | 32844 ft | 471 kts | 77° |
| 2026-04-26 04:50 | 52.81031 | 156.20309 | 32843 ft | 470 kts | 78° |
| 2026-04-26 04:50 | 52.82335 | 156.30847 | 32838 ft | 466 kts | 70° |
| 2026-04-26 04:51 | 52.84123 | 156.41146 | 32840 ft | 466 kts | 70° |
| 2026-04-26 04:51 | 52.85889 | 156.51442 | 32832 ft | 465 kts | 70° |
| 2026-04-26 04:52 | 52.87620 | 156.61704 | 32374 ft | 467 kts | 71° |
| 2026-04-26 04:52 | 52.88491 | 156.66884 | 31778 ft | 466 kts | 71° |
| 2026-04-26 04:52 | 52.89356 | 156.72032 | 31212 ft | 463 kts | 71° |
| 2026-04-26 04:53 | 52.90219 | 156.77163 | 30643 ft | 461 kts | 70° |
| 2026-04-26 04:53 | 52.91074 | 156.82265 | 30086 ft | 459 kts | 70° |
| 2026-04-26 04:53 | 52.91923 | 156.87349 | 29526 ft | 456 kts | 71° |
| 2026-04-26 04:53 | 52.92765 | 156.92408 | 28975 ft | 454 kts | 71° |
| 2026-04-26 04:54 | 52.93596 | 156.97430 | 28435 ft | 450 kts | 71° |
| 2026-04-26 04:54 | 52.94420 | 157.02426 | 27882 ft | 447 kts | 71° |
| 2026-04-26 04:54 | 52.95235 | 157.07379 | 27399 ft | 443 kts | 71° |
| 2026-04-26 04:54 | 52.96042 | 157.12288 | 26851 ft | 440 kts | 71° |
| 2026-04-26 04:55 | 52.96836 | 157.17141 | 26473 ft | 433 kts | 71° |
| 2026-04-26 04:55 | 52.97622 | 157.21960 | 25891 ft | 431 kts | 71° |
| 2026-04-26 04:55 | 52.98397 | 157.26713 | 25386 ft | 426 kts | 71° |
| 2026-04-26 04:55 | 52.99165 | 157.31431 | 24981 ft | 419 kts | 71° |
| 2026-04-26 04:56 | 52.99926 | 157.36097 | 24463 ft | 416 kts | 71° |
| 2026-04-26 04:56 | 53.00674 | 157.40707 | 23967 ft | 412 kts | 71° |
| 2026-04-26 04:56 | 53.01410 | 157.45277 | 23520 ft | 407 kts | 71° |
| 2026-04-26 04:56 | 53.02135 | 157.49802 | 23012 ft | 404 kts | 71° |
| 2026-04-26 04:57 | 53.02848 | 157.54277 | 22564 ft | 399 kts | 71° |
| 2026-04-26 04:57 | 53.03555 | 157.58704 | 22121 ft | 394 kts | 71° |
| 2026-04-26 04:57 | 53.04129 | 157.63135 | 21679 ft | 391 kts | 77° |
| 2026-04-26 04:57 | 53.04573 | 157.67569 | 21231 ft | 387 kts | 77° |
| 2026-04-26 04:58 | 53.05014 | 157.71962 | 20784 ft | 383 kts | 77° |
| 2026-04-26 04:58 | 53.05444 | 157.76306 | 20334 ft | 379 kts | 77° |
| 2026-04-26 04:58 | 53.05871 | 157.80616 | 19890 ft | 376 kts | 77° |
| 2026-04-26 04:58 | 53.06291 | 157.84885 | 19448 ft | 373 kts | 77° |
| 2026-04-26 04:59 | 53.06705 | 157.89116 | 19010 ft | 370 kts | 77° |
| 2026-04-26 04:59 | 53.07115 | 157.93324 | 18580 ft | 367 kts | 77° |
| 2026-04-26 04:59 | 53.07521 | 157.97502 | 18151 ft | 364 kts | 78° |
| 2026-04-26 04:59 | 53.07924 | 158.01633 | 17728 ft | 361 kts | 77° |
| 2026-04-26 05:00 | 53.08322 | 158.05739 | 17303 ft | 358 kts | 77° |
| 2026-04-26 05:00 | 53.08713 | 158.09810 | 16890 ft | 355 kts | 78° |
| 2026-04-26 05:00 | 53.09099 | 158.13856 | 16476 ft | 353 kts | 78° |
| 2026-04-26 05:00 | 53.09480 | 158.17863 | 16074 ft | 349 kts | 78° |
| 2026-04-26 05:01 | 53.09857 | 158.21841 | 15679 ft | 346 kts | 78° |
| 2026-04-26 05:01 | 53.10231 | 158.25781 | 15274 ft | 344 kts | 78° |
| 2026-04-26 05:01 | 53.10596 | 158.29642 | 14886 ft | 341 kts | 78° |
| 2026-04-26 05:01 | 53.10962 | 158.33525 | 14490 ft | 339 kts | 78° |
| 2026-04-26 05:02 | 53.11326 | 158.37390 | 14083 ft | 337 kts | 78° |
| 2026-04-26 05:02 | 53.11687 | 158.41230 | 13697 ft | 334 kts | 78° |
| 2026-04-26 05:02 | 53.12043 | 158.45039 | 13338 ft | 331 kts | 78° |
| 2026-04-26 05:02 | 53.12385 | 158.48758 | 13201 ft | 317 kts | 78° |
| 2026-04-26 05:03 | 53.12706 | 158.52320 | 12632 ft | 307 kts | 78° |
| 2026-04-26 05:03 | 53.12912 | 158.54602 | 12299 ft | 300 kts | 78° |
| 2026-04-26 05:03 | 53.13214 | 158.57947 | 11943 ft | 285 kts | 78° |
| 2026-04-26 05:03 | 53.13507 | 158.61189 | 11306 ft | 282 kts | 78° |
| 2026-04-26 05:04 | 53.13592 | 158.64451 | 10804 ft | 284 kts | 97° |
| 2026-04-26 05:04 | 53.13030 | 158.67654 | 10834 ft | 296 kts | 116° |
| 2026-04-26 05:04 | 53.11858 | 158.70497 | 10528 ft | 302 kts | 135° |
| 2026-04-26 05:04 | 53.10159 | 158.72451 | 9950 ft | 293 kts | 159° |
| 2026-04-26 05:05 | 53.08257 | 158.73711 | 9459 ft | 293 kts | 160° |
| 2026-04-26 05:05 | 53.06387 | 158.74971 | 8993 ft | 288 kts | 159° |
| 2026-04-26 05:05 | 53.04549 | 158.76230 | 8529 ft | 284 kts | 159° |
| 2026-04-26 05:05 | 53.02727 | 158.77462 | 8174 ft | 281 kts | 162° |
| 2026-04-26 05:06 | 53.00823 | 158.77995 | 7771 ft | 276 kts | 185° |
| 2026-04-26 05:06 | 52.98988 | 158.77301 | 7336 ft | 269 kts | 207° |
| 2026-04-26 05:06 | 52.97455 | 158.75581 | 6767 ft | 266 kts | 227° |
| 2026-04-26 05:06 | 52.96416 | 158.73108 | 6069 ft | 260 kts | 248° |
| 2026-04-26 05:07 | 52.95971 | 158.70243 | 5382 ft | 255 kts | 265° |
| 2026-04-26 05:07 | 52.95797 | 158.67327 | 4704 ft | 253 kts | 264° |
| 2026-04-26 05:07 | 52.95618 | 158.64450 | 4094 ft | 247 kts | 265° |
| 2026-04-26 05:07 | 52.95782 | 158.61745 | 3823 ft | 229 kts | 291° |
| 2026-04-26 05:08 | 52.96630 | 158.59604 | 3654 ft | 217 kts | 317° |
| 2026-04-26 05:08 | 52.97850 | 158.58300 | 3455 ft | 200 kts | 333° |
| 2026-04-26 05:08 | 52.99081 | 158.57386 | 3244 ft | 189 kts | 335° |
| 2026-04-26 05:08 | 53.00268 | 158.56562 | 3023 ft | 181 kts | 336° |
| 2026-04-26 05:09 | 53.01408 | 158.55777 | 2817 ft | 174 kts | 336° |
| 2026-04-26 05:09 | 53.02512 | 158.55018 | 2611 ft | 169 kts | 336° |
| 2026-04-26 05:09 | 53.03566 | 158.54294 | 2421 ft | 163 kts | 336° |
| 2026-04-26 05:09 | 53.04598 | 158.53583 | 2235 ft | 159 kts | 336° |
| 2026-04-26 05:10 | 53.05613 | 158.52884 | 2039 ft | 157 kts | 336° |
| 2026-04-26 05:10 | 53.06612 | 158.52197 | 1880 ft | 150 kts | 336° |
| 2026-04-26 05:10 | 53.07558 | 158.51545 | 1680 ft | 145 kts | 335° |
| 2026-04-26 05:10 | 53.08482 | 158.50909 | 1503 ft | 143 kts | 336° |
| 2026-04-26 05:11 | 53.09392 | 158.50280 | 1337 ft | 141 kts | 336° |
| 2026-04-26 05:11 | 53.10297 | 158.49656 | 1162 ft | 140 kts | 336° |
| 2026-04-26 05:11 | 53.11199 | 158.49034 | 1003 ft | 140 kts | 336° |
| 2026-04-26 05:11 | 53.12101 | 158.48412 | 832 ft | 141 kts | 336° |
| 2026-04-26 05:12 | 53.13001 | 158.47790 | 659 ft | 140 kts | 336° |
| 2026-04-26 05:12 | 53.13908 | 158.47170 | 490 ft | 143 kts | 336° |
| 2026-04-26 05:12 | 53.14821 | 158.46531 | 302 ft | 141 kts | 336° |
| 2026-04-26 05:12 | 53.15728 | 158.45904 | 139 ft | 140 kts | 336° |
| 2026-04-26 05:13 | 53.16499 | 158.45366 | 120 ft | 92 kts | 337° |
| 2026-04-26 05:13 | 53.16895 | 158.45092 | 123 ft | 46 kts | 338° |
| 2026-04-26 05:13 | 53.17138 | 158.44923 | 124 ft | 33 kts | 337° |
| 2026-04-26 05:13 | 53.17333 | 158.44787 | 125 ft | 28 kts | 337° |
| 2026-04-26 05:14 | 53.17505 | 158.44667 | 125 ft | 26 kts | 337° |
| 2026-04-26 05:14 | 53.17672 | 158.44551 | 126 ft | 26 kts | 337° |
| 2026-04-26 05:14 | 53.17838 | 158.44436 | 121 ft | 26 kts | 337° |
| 2026-04-26 05:14 | 53.18005 | 158.44322 | 120 ft | 26 kts | 338° |
| 2026-04-26 05:15 | 53.18164 | 158.44214 | 122 ft | 22 kts | 338° |
| 2026-04-26 05:15 | 53.18276 | 158.44139 | 127 ft | 14 kts | 338° |
| 2026-04-26 05:15 | 53.18323 | 158.44013 | 123 ft | 14 kts | 268° |
| 2026-04-26 05:15 | 53.18290 | 158.43856 | 122 ft | 14 kts | 248° |
| 2026-04-26 05:16 | 53.18257 | 158.43721 | 121 ft | 10 kts | 248° |
| 2026-04-26 05:16 | 53.18234 | 158.43624 | 123 ft | 8 kts | 244° |
| 2026-04-26 05:16 | 53.18190 | 158.43600 | 119 ft | 6 kts | 173° |
| 2026-04-26 05:16 | 53.18151 | 158.43608 | 123 ft | 5 kts | 173° |
| 2026-04-26 05:17 | 53.18134 | 158.43592 | 120 ft | 2 kts | 249° |
| 2026-04-26 05:17 | 53.18135 | 158.43561 | 123 ft | 3 kts | 275° |
| 2026-04-26 05:17 | 53.18137 | 158.43538 | 123 ft | 1 kts | 276° |
| 2026-04-26 05:17 | 53.18138 | 158.43513 | 123 ft | 3 kts | 275° |
| 2026-04-26 05:18 | 53.18139 | 158.43495 | 123 ft | 0 kts | 275° |